sensor_id;sensor_type;location;lat;lon;timestamp;temperature;humidity
1680;DHT22;838;51.794;12.258;2024-02-15T00:01:42;10.80;84.20
1680;DHT22;838;51.794;12.258;2024-02-15T00:04:08;10.80;84.70
1680;DHT22;838;51.794;12.258;2024-02-15T00:06:33;10.90;83.40
1680;DHT22;838;51.794;12.258;2024-02-15T00:09:00;10.90;82.90
1680;DHT22;838;51.794;12.258;2024-02-15T00:11:26;10.90;83.50
1680;DHT22;838;51.794;12.258;2024-02-15T00:13:52;11.00;83.30
1680;DHT22;838;51.794;12.258;2024-02-15T00:16:18;11.00;82.90
1680;DHT22;838;51.794;12.258;2024-02-15T00:18:43;11.00;83.30
1680;DHT22;838;51.794;12.258;2024-02-15T00:21:10;10.90;83.30
1680;DHT22;838;51.794;12.258;2024-02-15T00:23:36;10.80;84.40
1680;DHT22;838;51.794;12.258;2024-02-15T00:26:02;10.80;84.40
1680;DHT22;838;51.794;12.258;2024-02-15T00:28:28;10.70;84.40
1680;DHT22;838;51.794;12.258;2024-02-15T00:30:54;10.70;86.00
1680;DHT22;838;51.794;12.258;2024-02-15T00:33:19;10.80;86.10
1680;DHT22;838;51.794;12.258;2024-02-15T00:35:45;10.70;85.60
1680;DHT22;838;51.794;12.258;2024-02-15T00:38:11;10.80;85.80
1680;DHT22;838;51.794;12.258;2024-02-15T00:40:36;10.70;86.10
1680;DHT22;838;51.794;12.258;2024-02-15T00:43:02;10.70;86.10
1680;DHT22;838;51.794;12.258;2024-02-15T00:45:28;10.70;86.80
1680;DHT22;838;51.794;12.258;2024-02-15T00:47:54;10.70;86.90
1680;DHT22;838;51.794;12.258;2024-02-15T00:50:21;10.60;87.10
1680;DHT22;838;51.794;12.258;2024-02-15T00:52:47;10.60;87.80
1680;DHT22;838;51.794;12.258;2024-02-15T00:55:12;10.60;88.30
1680;DHT22;838;51.794;12.258;2024-02-15T00:57:38;10.60;88.50
1680;DHT22;838;51.794;12.258;2024-02-15T01:00:05;10.60;88.90
1680;DHT22;838;51.794;12.258;2024-02-15T01:02:31;10.60;88.40
1680;DHT22;838;51.794;12.258;2024-02-15T01:04:57;10.70;88.30
1680;DHT22;838;51.794;12.258;2024-02-15T01:07:24;10.70;88.60
1680;DHT22;838;51.794;12.258;2024-02-15T01:09:53;10.60;88.20
1680;DHT22;838;51.794;12.258;2024-02-15T01:12:19;10.60;88.50
1680;DHT22;838;51.794;12.258;2024-02-15T01:14:46;10.70;89.20
1680;DHT22;838;51.794;12.258;2024-02-15T01:17:12;10.70;88.80
1680;DHT22;838;51.794;12.258;2024-02-15T01:19:37;10.70;89.00
1680;DHT22;838;51.794;12.258;2024-02-15T01:22:03;10.80;89.50
1680;DHT22;838;51.794;12.258;2024-02-15T01:24:29;10.80;88.80
1680;DHT22;838;51.794;12.258;2024-02-15T01:26:55;10.70;88.40
1680;DHT22;838;51.794;12.258;2024-02-15T01:29:21;10.80;89.20
1680;DHT22;838;51.794;12.258;2024-02-15T01:31:47;10.80;88.40
1680;DHT22;838;51.794;12.258;2024-02-15T01:34:12;10.70;88.50
1680;DHT22;838;51.794;12.258;2024-02-15T01:36:38;10.80;88.60
1680;DHT22;838;51.794;12.258;2024-02-15T01:39:04;10.80;88.90
1680;DHT22;838;51.794;12.258;2024-02-15T01:41:30;10.90;87.90
1680;DHT22;838;51.794;12.258;2024-02-15T01:43:55;10.90;87.70
1680;DHT22;838;51.794;12.258;2024-02-15T01:46:21;10.90;87.20
1680;DHT22;838;51.794;12.258;2024-02-15T01:48:47;10.90;87.30
1680;DHT22;838;51.794;12.258;2024-02-15T01:51:14;10.90;87.60
1680;DHT22;838;51.794;12.258;2024-02-15T01:53:42;10.90;87.60
1680;DHT22;838;51.794;12.258;2024-02-15T01:56:08;10.90;87.30
1680;DHT22;838;51.794;12.258;2024-02-15T01:58:35;10.90;88.10
1680;DHT22;838;51.794;12.258;2024-02-15T02:01:02;10.90;87.40
1680;DHT22;838;51.794;12.258;2024-02-15T02:03:28;10.90;88.40
1680;DHT22;838;51.794;12.258;2024-02-15T02:05:53;10.90;87.90
1680;DHT22;838;51.794;12.258;2024-02-15T02:08:20;11.00;88.60
1680;DHT22;838;51.794;12.258;2024-02-15T02:10:45;11.10;88.30
1680;DHT22;838;51.794;12.258;2024-02-15T02:13:12;11.10;87.50
1680;DHT22;838;51.794;12.258;2024-02-15T02:15:38;11.10;87.00
1680;DHT22;838;51.794;12.258;2024-02-15T02:18:04;11.10;87.00
1680;DHT22;838;51.794;12.258;2024-02-15T02:20:34;11.10;86.00
1680;DHT22;838;51.794;12.258;2024-02-15T02:23:07;11.00;86.40
1680;DHT22;838;51.794;12.258;2024-02-15T02:25:35;11.00;87.40
1680;DHT22;838;51.794;12.258;2024-02-15T02:28:01;11.10;87.00
1680;DHT22;838;51.794;12.258;2024-02-15T02:30:27;11.00;88.30
1680;DHT22;838;51.794;12.258;2024-02-15T02:32:58;11.10;86.80
1680;DHT22;838;51.794;12.258;2024-02-15T02:35:25;11.10;87.10
1680;DHT22;838;51.794;12.258;2024-02-15T02:37:51;11.10;86.90
1680;DHT22;838;51.794;12.258;2024-02-15T02:40:18;11.10;88.20
1680;DHT22;838;51.794;12.258;2024-02-15T02:42:55;11.10;87.00
1680;DHT22;838;51.794;12.258;2024-02-15T02:45:22;11.10;87.10
1680;DHT22;838;51.794;12.258;2024-02-15T02:47:51;11.10;87.20
1680;DHT22;838;51.794;12.258;2024-02-15T02:50:17;11.00;87.40
1680;DHT22;838;51.794;12.258;2024-02-15T02:52:44;11.00;88.50
1680;DHT22;838;51.794;12.258;2024-02-15T02:55:10;10.90;88.30
1680;DHT22;838;51.794;12.258;2024-02-15T02:57:37;10.90;88.50
1680;DHT22;838;51.794;12.258;2024-02-15T03:00:09;10.90;88.90
1680;DHT22;838;51.794;12.258;2024-02-15T03:02:38;10.90;89.60
1680;DHT22;838;51.794;12.258;2024-02-15T03:05:08;10.90;89.50
1680;DHT22;838;51.794;12.258;2024-02-15T03:07:35;11.00;89.30
1680;DHT22;838;51.794;12.258;2024-02-15T03:10:01;10.90;89.60
1680;DHT22;838;51.794;12.258;2024-02-15T03:12:34;10.90;89.30
1680;DHT22;838;51.794;12.258;2024-02-15T03:15:04;10.90;90.00
1680;DHT22;838;51.794;12.258;2024-02-15T03:17:30;11.00;90.00
1680;DHT22;838;51.794;12.258;2024-02-15T03:19:58;11.00;89.70
1680;DHT22;838;51.794;12.258;2024-02-15T03:22:24;11.00;90.20
1680;DHT22;838;51.794;12.258;2024-02-15T03:24:51;11.00;89.30
1680;DHT22;838;51.794;12.258;2024-02-15T03:27:17;11.10;89.40
1680;DHT22;838;51.794;12.258;2024-02-15T03:29:43;11.20;89.30
1680;DHT22;838;51.794;12.258;2024-02-15T03:32:09;11.10;87.60
1680;DHT22;838;51.794;12.258;2024-02-15T03:34:37;11.20;87.70
1680;DHT22;838;51.794;12.258;2024-02-15T03:37:05;11.10;87.50
1680;DHT22;838;51.794;12.258;2024-02-15T03:39:30;11.10;88.00
1680;DHT22;838;51.794;12.258;2024-02-15T03:41:58;11.10;88.10
1680;DHT22;838;51.794;12.258;2024-02-15T03:44:24;11.10;88.30
1680;DHT22;838;51.794;12.258;2024-02-15T03:46:52;11.10;88.50
1680;DHT22;838;51.794;12.258;2024-02-15T03:49:18;11.10;88.30
1680;DHT22;838;51.794;12.258;2024-02-15T03:51:44;11.10;88.90
1680;DHT22;838;51.794;12.258;2024-02-15T03:54:13;11.20;88.20
1680;DHT22;838;51.794;12.258;2024-02-15T03:56:51;11.20;87.30
1680;DHT22;838;51.794;12.258;2024-02-15T03:59:21;11.20;87.00
1680;DHT22;838;51.794;12.258;2024-02-15T04:01:58;11.20;87.50
1680;DHT22;838;51.794;12.258;2024-02-15T04:04:23;11.20;87.20
1680;DHT22;838;51.794;12.258;2024-02-15T04:06:50;11.20;87.30
1680;DHT22;838;51.794;12.258;2024-02-15T04:09:16;11.20;87.40
1680;DHT22;838;51.794;12.258;2024-02-15T04:11:49;11.20;86.70
1680;DHT22;838;51.794;12.258;2024-02-15T04:14:18;11.20;86.90
1680;DHT22;838;51.794;12.258;2024-02-15T04:16:44;11.10;86.10
1680;DHT22;838;51.794;12.258;2024-02-15T04:19:11;11.00;86.90
1680;DHT22;838;51.794;12.258;2024-02-15T04:21:36;11.10;87.40
1680;DHT22;838;51.794;12.258;2024-02-15T04:24:02;11.10;87.20
1680;DHT22;838;51.794;12.258;2024-02-15T04:26:28;11.00;87.50
1680;DHT22;838;51.794;12.258;2024-02-15T04:28:56;11.00;87.40
1680;DHT22;838;51.794;12.258;2024-02-15T04:31:22;11.10;88.50
1680;DHT22;838;51.794;12.258;2024-02-15T04:33:58;11.10;87.70
1680;DHT22;838;51.794;12.258;2024-02-15T04:36:24;11.20;87.90
1680;DHT22;838;51.794;12.258;2024-02-15T04:38:51;11.20;87.10
1680;DHT22;838;51.794;12.258;2024-02-15T04:41:17;11.30;87.80
1680;DHT22;838;51.794;12.258;2024-02-15T04:43:49;11.20;86.20
1680;DHT22;838;51.794;12.258;2024-02-15T04:46:15;11.10;86.40
1680;DHT22;838;51.794;12.258;2024-02-15T04:48:41;11.10;87.00
1680;DHT22;838;51.794;12.258;2024-02-15T04:51:11;11.10;87.10
1680;DHT22;838;51.794;12.258;2024-02-15T04:53:37;11.20;88.00
1680;DHT22;838;51.794;12.258;2024-02-15T04:56:07;11.10;87.50
1680;DHT22;838;51.794;12.258;2024-02-15T04:58:39;11.20;87.70
1680;DHT22;838;51.794;12.258;2024-02-15T05:01:17;11.20;88.10
1680;DHT22;838;51.794;12.258;2024-02-15T05:03:46;11.10;88.20
1680;DHT22;838;51.794;12.258;2024-02-15T05:06:12;11.10;88.10
1680;DHT22;838;51.794;12.258;2024-02-15T05:08:39;11.20;88.80
1680;DHT22;838;51.794;12.258;2024-02-15T05:11:14;11.20;87.70
1680;DHT22;838;51.794;12.258;2024-02-15T05:13:48;11.20;87.30
1680;DHT22;838;51.794;12.258;2024-02-15T05:16:17;11.20;87.30
1680;DHT22;838;51.794;12.258;2024-02-15T05:18:44;11.30;88.00
1680;DHT22;838;51.794;12.258;2024-02-15T05:21:13;11.30;87.40
1680;DHT22;838;51.794;12.258;2024-02-15T05:23:39;11.30;87.20
1680;DHT22;838;51.794;12.258;2024-02-15T05:26:11;11.40;86.40
1680;DHT22;838;51.794;12.258;2024-02-15T05:28:51;11.30;84.80
1680;DHT22;838;51.794;12.258;2024-02-15T05:31:18;11.40;83.80
1680;DHT22;838;51.794;12.258;2024-02-15T05:33:53;11.30;84.60
1680;DHT22;838;51.794;12.258;2024-02-15T05:36:20;11.20;85.80
1680;DHT22;838;51.794;12.258;2024-02-15T05:38:47;11.30;86.20
1680;DHT22;838;51.794;12.258;2024-02-15T05:41:14;11.20;85.40
1680;DHT22;838;51.794;12.258;2024-02-15T05:43:40;10.90;85.40
1680;DHT22;838;51.794;12.258;2024-02-15T05:46:09;11.20;86.60
1680;DHT22;838;51.794;12.258;2024-02-15T05:48:35;11.20;87.10
1680;DHT22;838;51.794;12.258;2024-02-15T05:51:07;11.30;87.40
1680;DHT22;838;51.794;12.258;2024-02-15T05:53:36;11.50;86.70
1680;DHT22;838;51.794;12.258;2024-02-15T05:56:02;11.60;84.90
1680;DHT22;838;51.794;12.258;2024-02-15T05:58:30;11.50;84.20
1680;DHT22;838;51.794;12.258;2024-02-15T06:00:57;11.50;83.70
1680;DHT22;838;51.794;12.258;2024-02-15T06:03:27;11.60;83.60
1680;DHT22;838;51.794;12.258;2024-02-15T06:05:53;11.70;83.70
1680;DHT22;838;51.794;12.258;2024-02-15T06:08:27;11.60;82.20
1680;DHT22;838;51.794;12.258;2024-02-15T06:10:53;11.50;83.50
1680;DHT22;838;51.794;12.258;2024-02-15T06:13:19;11.60;83.90
1680;DHT22;838;51.794;12.258;2024-02-15T06:15:45;11.60;82.60
1680;DHT22;838;51.794;12.258;2024-02-15T06:18:15;11.60;82.80
1680;DHT22;838;51.794;12.258;2024-02-15T06:20:42;11.70;82.10
1680;DHT22;838;51.794;12.258;2024-02-15T06:23:08;11.70;81.80
1680;DHT22;838;51.794;12.258;2024-02-15T06:25:37;11.70;82.30
1680;DHT22;838;51.794;12.258;2024-02-15T06:28:03;11.70;82.00
1680;DHT22;838;51.794;12.258;2024-02-15T06:30:42;11.70;82.70
1680;DHT22;838;51.794;12.258;2024-02-15T06:33:26;11.50;82.70
1680;DHT22;838;51.794;12.258;2024-02-15T06:36:10;11.50;83.50
1680;DHT22;838;51.794;12.258;2024-02-15T06:38:54;11.60;83.60
1680;DHT22;838;51.794;12.258;2024-02-15T06:41:38;11.60;83.60
1680;DHT22;838;51.794;12.258;2024-02-15T06:44:04;11.50;83.20
1680;DHT22;838;51.794;12.258;2024-02-15T06:46:29;11.40;84.60
1680;DHT22;838;51.794;12.258;2024-02-15T06:48:55;11.50;85.30
1680;DHT22;838;51.794;12.258;2024-02-15T06:51:23;11.50;84.20
1680;DHT22;838;51.794;12.258;2024-02-15T06:53:50;11.50;84.20
1680;DHT22;838;51.794;12.258;2024-02-15T06:56:17;11.50;84.70
1680;DHT22;838;51.794;12.258;2024-02-15T06:58:46;11.50;85.00
1680;DHT22;838;51.794;12.258;2024-02-15T07:01:13;11.50;85.00
1680;DHT22;838;51.794;12.258;2024-02-15T07:03:42;11.50;84.90
1680;DHT22;838;51.794;12.258;2024-02-15T07:06:10;11.50;84.70
1680;DHT22;838;51.794;12.258;2024-02-15T07:08:35;11.50;85.20
1680;DHT22;838;51.794;12.258;2024-02-15T07:11:01;11.50;85.90
1680;DHT22;838;51.794;12.258;2024-02-15T07:13:29;11.50;84.90
1680;DHT22;838;51.794;12.258;2024-02-15T07:15:54;11.60;85.30
1680;DHT22;838;51.794;12.258;2024-02-15T07:18:20;11.60;85.00
1680;DHT22;838;51.794;12.258;2024-02-15T07:20:47;11.70;85.60
1680;DHT22;838;51.794;12.258;2024-02-15T07:23:13;11.80;85.00
1680;DHT22;838;51.794;12.258;2024-02-15T07:25:40;11.90;84.30
1680;DHT22;838;51.794;12.258;2024-02-15T07:28:06;11.90;83.20
1680;DHT22;838;51.794;12.258;2024-02-15T07:30:34;12.00;83.20
1680;DHT22;838;51.794;12.258;2024-02-15T07:33:00;12.00;82.20
1680;DHT22;838;51.794;12.258;2024-02-15T07:35:25;12.00;83.10
1680;DHT22;838;51.794;12.258;2024-02-15T07:37:55;12.10;83.50
1680;DHT22;838;51.794;12.258;2024-02-15T07:40:23;12.30;83.20
1680;DHT22;838;51.794;12.258;2024-02-15T07:42:54;12.50;82.20
1680;DHT22;838;51.794;12.258;2024-02-15T07:45:20;12.50;79.90
1680;DHT22;838;51.794;12.258;2024-02-15T07:47:45;12.70;78.00
1680;DHT22;838;51.794;12.258;2024-02-15T07:50:15;12.80;77.60
1680;DHT22;838;51.794;12.258;2024-02-15T07:52:45;12.90;76.50
1680;DHT22;838;51.794;12.258;2024-02-15T07:55:11;13.00;76.70
1680;DHT22;838;51.794;12.258;2024-02-15T07:57:37;13.10;75.20
1680;DHT22;838;51.794;12.258;2024-02-15T08:00:04;13.20;76.30
1680;DHT22;838;51.794;12.258;2024-02-15T08:02:36;13.20;73.40
1680;DHT22;838;51.794;12.258;2024-02-15T08:05:03;13.20;75.30
1680;DHT22;838;51.794;12.258;2024-02-15T08:07:31;13.00;75.70
1680;DHT22;838;51.794;12.258;2024-02-15T08:10:00;13.00;75.10
1680;DHT22;838;51.794;12.258;2024-02-15T08:12:25;13.10;76.70
1680;DHT22;838;51.794;12.258;2024-02-15T08:14:52;13.10;75.40
1680;DHT22;838;51.794;12.258;2024-02-15T08:17:17;13.10;75.70
1680;DHT22;838;51.794;12.258;2024-02-15T08:19:43;13.10;76.10
1680;DHT22;838;51.794;12.258;2024-02-15T08:22:09;13.10;75.00
1680;DHT22;838;51.794;12.258;2024-02-15T08:24:35;13.10;74.60
1680;DHT22;838;51.794;12.258;2024-02-15T08:27:02;13.10;75.80
1680;DHT22;838;51.794;12.258;2024-02-15T08:29:30;13.20;75.20
1680;DHT22;838;51.794;12.258;2024-02-15T08:31:56;13.40;74.30
1680;DHT22;838;51.794;12.258;2024-02-15T08:34:21;13.50;73.30
1680;DHT22;838;51.794;12.258;2024-02-15T08:36:47;13.70;73.80
1680;DHT22;838;51.794;12.258;2024-02-15T08:39:14;13.70;69.70
1680;DHT22;838;51.794;12.258;2024-02-15T08:41:42;13.80;70.30
1680;DHT22;838;51.794;12.258;2024-02-15T08:44:07;13.80;69.20
1680;DHT22;838;51.794;12.258;2024-02-15T08:46:37;13.80;71.40
1680;DHT22;838;51.794;12.258;2024-02-15T08:49:03;13.90;68.90
1680;DHT22;838;51.794;12.258;2024-02-15T08:51:32;13.80;68.80
1680;DHT22;838;51.794;12.258;2024-02-15T08:53:58;13.80;70.90
1680;DHT22;838;51.794;12.258;2024-02-15T08:56:25;13.80;71.10
1680;DHT22;838;51.794;12.258;2024-02-15T08:58:51;14.00;69.50
1680;DHT22;838;51.794;12.258;2024-02-15T09:01:17;14.20;69.20
1680;DHT22;838;51.794;12.258;2024-02-15T09:03:42;14.60;66.70
1680;DHT22;838;51.794;12.258;2024-02-15T09:06:10;14.60;65.50
1680;DHT22;838;51.794;12.258;2024-02-15T09:08:36;14.80;67.80
1680;DHT22;838;51.794;12.258;2024-02-15T09:11:02;15.00;63.90
1680;DHT22;838;51.794;12.258;2024-02-15T09:13:27;15.30;59.40
1680;DHT22;838;51.794;12.258;2024-02-15T09:15:53;15.40;60.50
1680;DHT22;838;51.794;12.258;2024-02-15T09:18:20;15.40;60.90
1680;DHT22;838;51.794;12.258;2024-02-15T09:20:48;15.30;59.20
1680;DHT22;838;51.794;12.258;2024-02-15T09:23:19;15.10;60.20
1680;DHT22;838;51.794;12.258;2024-02-15T09:25:45;15.00;63.50
1680;DHT22;838;51.794;12.258;2024-02-15T09:28:11;15.10;63.30
1680;DHT22;838;51.794;12.258;2024-02-15T09:30:37;15.20;61.30
1680;DHT22;838;51.794;12.258;2024-02-15T09:33:03;15.30;61.40
1680;DHT22;838;51.794;12.258;2024-02-15T09:35:30;15.10;61.20
1680;DHT22;838;51.794;12.258;2024-02-15T09:37:56;15.20;63.30
1680;DHT22;838;51.794;12.258;2024-02-15T09:40:22;15.30;61.80
1680;DHT22;838;51.794;12.258;2024-02-15T09:42:52;15.40;61.20
1680;DHT22;838;51.794;12.258;2024-02-15T09:45:18;15.50;60.10
1680;DHT22;838;51.794;12.258;2024-02-15T09:47:46;15.50;56.70
1680;DHT22;838;51.794;12.258;2024-02-15T09:50:16;15.40;57.50
1680;DHT22;838;51.794;12.258;2024-02-15T09:52:53;15.50;57.10
1680;DHT22;838;51.794;12.258;2024-02-15T09:55:22;15.50;58.90
1680;DHT22;838;51.794;12.258;2024-02-15T09:57:50;15.70;57.40
1680;DHT22;838;51.794;12.258;2024-02-15T10:00:16;15.80;57.10
1680;DHT22;838;51.794;12.258;2024-02-15T10:02:48;15.90;55.30
1680;DHT22;838;51.794;12.258;2024-02-15T10:05:16;15.80;53.90
1680;DHT22;838;51.794;12.258;2024-02-15T10:07:43;15.80;54.80
1680;DHT22;838;51.794;12.258;2024-02-15T10:12:55;15.70;55.80
1680;DHT22;838;51.794;12.258;2024-02-15T10:15:28;15.80;55.40
1680;DHT22;838;51.794;12.258;2024-02-15T10:17:58;16.00;54.10
1680;DHT22;838;51.794;12.258;2024-02-15T10:20:24;16.00;51.50
1680;DHT22;838;51.794;12.258;2024-02-15T10:23:12;15.90;50.60
1680;DHT22;838;51.794;12.258;2024-02-15T10:25:40;15.70;55.00
1680;DHT22;838;51.794;12.258;2024-02-15T10:28:07;15.80;54.40
1680;DHT22;838;51.794;12.258;2024-02-15T10:30:34;15.90;53.40
1680;DHT22;838;51.794;12.258;2024-02-15T10:33:01;15.80;53.80
1680;DHT22;838;51.794;12.258;2024-02-15T10:35:28;15.90;55.70
1680;DHT22;838;51.794;12.258;2024-02-15T10:38:05;16.10;53.80
1680;DHT22;838;51.794;12.258;2024-02-15T10:40:33;16.00;53.40
1680;DHT22;838;51.794;12.258;2024-02-15T10:42:59;15.70;54.20
1680;DHT22;838;51.794;12.258;2024-02-15T10:45:30;15.70;55.80
1680;DHT22;838;51.794;12.258;2024-02-15T10:47:57;15.70;56.10
1680;DHT22;838;51.794;12.258;2024-02-15T10:50:26;15.80;54.80
1680;DHT22;838;51.794;12.258;2024-02-15T10:52:55;16.00;55.40
1680;DHT22;838;51.794;12.258;2024-02-15T10:58:32;16.00;53.40
1680;DHT22;838;51.794;12.258;2024-02-15T11:01:02;16.00;54.20
1680;DHT22;838;51.794;12.258;2024-02-15T11:03:35;16.20;49.20
1680;DHT22;838;51.794;12.258;2024-02-15T11:06:02;16.10;49.30
1680;DHT22;838;51.794;12.258;2024-02-15T11:08:32;16.00;51.50
1680;DHT22;838;51.794;12.258;2024-02-15T11:10:58;15.70;54.30
1680;DHT22;838;51.794;12.258;2024-02-15T11:13:24;15.50;55.80
1680;DHT22;838;51.794;12.258;2024-02-15T11:15:50;15.50;57.30
1680;DHT22;838;51.794;12.258;2024-02-15T11:18:44;15.60;57.50
1680;DHT22;838;51.794;12.258;2024-02-15T11:21:12;15.90;55.40
1680;DHT22;838;51.794;12.258;2024-02-15T11:23:38;16.10;53.70
1680;DHT22;838;51.794;12.258;2024-02-15T11:26:04;16.20;51.10
1680;DHT22;838;51.794;12.258;2024-02-15T11:30:56;16.10;49.10
1680;DHT22;838;51.794;12.258;2024-02-15T11:36:07;16.10;50.40
1680;DHT22;838;51.794;12.258;2024-02-15T11:38:34;16.10;51.30
1680;DHT22;838;51.794;12.258;2024-02-15T11:41:05;16.00;51.00
1680;DHT22;838;51.794;12.258;2024-02-15T11:43:46;16.10;51.60
1680;DHT22;838;51.794;12.258;2024-02-15T11:46:19;16.20;51.60
1680;DHT22;838;51.794;12.258;2024-02-15T11:48:48;16.50;51.80
1680;DHT22;838;51.794;12.258;2024-02-15T11:51:34;16.80;45.90
1680;DHT22;838;51.794;12.258;2024-02-15T11:54:09;16.60;44.40
1680;DHT22;838;51.794;12.258;2024-02-15T11:59:10;16.60;45.20
1680;DHT22;838;51.794;12.258;2024-02-15T12:01:44;16.60;44.90
1680;DHT22;838;51.794;12.258;2024-02-15T12:04:31;16.50;43.60
1680;DHT22;838;51.794;12.258;2024-02-15T12:07:16;16.70;47.30
1680;DHT22;838;51.794;12.258;2024-02-15T12:10:00;16.90;41.70
1680;DHT22;838;51.794;12.258;2024-02-15T12:12:51;17.00;41.90
1680;DHT22;838;51.794;12.258;2024-02-15T12:15:35;16.90;40.30
1680;DHT22;838;51.794;12.258;2024-02-15T12:18:20;16.70;40.50
1680;DHT22;838;51.794;12.258;2024-02-15T12:21:05;16.70;42.20
1680;DHT22;838;51.794;12.258;2024-02-15T12:23:32;16.70;40.50
1680;DHT22;838;51.794;12.258;2024-02-15T12:26:00;16.40;40.80
1680;DHT22;838;51.794;12.258;2024-02-15T12:28:27;16.20;44.10
1680;DHT22;838;51.794;12.258;2024-02-15T12:30:56;16.30;44.00
1680;DHT22;838;51.794;12.258;2024-02-15T12:33:23;16.50;44.20
1680;DHT22;838;51.794;12.258;2024-02-15T12:35:49;16.90;43.30
1680;DHT22;838;51.794;12.258;2024-02-15T12:38:18;17.10;41.10
1680;DHT22;838;51.794;12.258;2024-02-15T12:40:43;17.50;38.60
1680;DHT22;838;51.794;12.258;2024-02-15T12:43:10;17.70;30.40
1680;DHT22;838;51.794;12.258;2024-02-15T12:45:41;17.90;31.40
1680;DHT22;838;51.794;12.258;2024-02-15T12:48:08;18.00;30.80
1680;DHT22;838;51.794;12.258;2024-02-15T12:50:34;18.30;26.50
1680;DHT22;838;51.794;12.258;2024-02-15T12:53:00;18.50;25.30
1680;DHT22;838;51.794;12.258;2024-02-15T12:55:32;18.40;24.30
1680;DHT22;838;51.794;12.258;2024-02-15T12:58:02;18.30;27.20
1680;DHT22;838;51.794;12.258;2024-02-15T13:00:37;18.10;28.70
1680;DHT22;838;51.794;12.258;2024-02-15T13:03:06;18.00;30.60
1680;DHT22;838;51.794;12.258;2024-02-15T13:05:35;18.00;29.70
1680;DHT22;838;51.794;12.258;2024-02-15T13:08:03;17.90;29.90
1680;DHT22;838;51.794;12.258;2024-02-15T13:10:36;17.70;29.80
1680;DHT22;838;51.794;12.258;2024-02-15T13:13:04;17.50;29.20
1680;DHT22;838;51.794;12.258;2024-02-15T13:15:31;17.50;30.90
1680;DHT22;838;51.794;12.258;2024-02-15T13:18:01;17.40;30.00
1680;DHT22;838;51.794;12.258;2024-02-15T13:20:30;17.30;32.50
1680;DHT22;838;51.794;12.258;2024-02-15T13:23:06;17.20;32.50
1680;DHT22;838;51.794;12.258;2024-02-15T13:25:41;17.30;32.40
1680;DHT22;838;51.794;12.258;2024-02-15T13:28:08;17.40;31.30
1680;DHT22;838;51.794;12.258;2024-02-15T13:30:36;17.30;30.30
1680;DHT22;838;51.794;12.258;2024-02-15T13:33:02;17.20;32.50
1680;DHT22;838;51.794;12.258;2024-02-15T13:35:28;16.90;33.00
1680;DHT22;838;51.794;12.258;2024-02-15T13:37:55;16.80;34.60
1680;DHT22;838;51.794;12.258;2024-02-15T13:40:24;16.60;35.30
1680;DHT22;838;51.794;12.258;2024-02-15T13:42:53;16.60;36.10
1680;DHT22;838;51.794;12.258;2024-02-15T13:45:22;16.50;36.10
1680;DHT22;838;51.794;12.258;2024-02-15T13:47:56;16.60;37.60
1680;DHT22;838;51.794;12.258;2024-02-15T13:50:22;16.70;36.70
1680;DHT22;838;51.794;12.258;2024-02-15T13:52:49;16.80;34.50
1680;DHT22;838;51.794;12.258;2024-02-15T13:55:17;16.70;36.00
1680;DHT22;838;51.794;12.258;2024-02-15T13:57:47;16.70;34.90
1680;DHT22;838;51.794;12.258;2024-02-15T14:00:16;16.80;36.00
1680;DHT22;838;51.794;12.258;2024-02-15T14:02:55;16.90;33.40
1680;DHT22;838;51.794;12.258;2024-02-15T14:05:28;16.80;34.20
1680;DHT22;838;51.794;12.258;2024-02-15T14:07:59;16.70;33.80
1680;DHT22;838;51.794;12.258;2024-02-15T14:10:27;16.60;33.60
1680;DHT22;838;51.794;12.258;2024-02-15T14:12:54;16.60;33.90
1680;DHT22;838;51.794;12.258;2024-02-15T14:15:29;16.80;34.90
1680;DHT22;838;51.794;12.258;2024-02-15T14:17:55;16.90;32.50
1680;DHT22;838;51.794;12.258;2024-02-15T14:20:22;17.00;32.40
1680;DHT22;838;51.794;12.258;2024-02-15T14:22:49;17.00;31.10
1680;DHT22;838;51.794;12.258;2024-02-15T14:25:21;17.10;30.30
1680;DHT22;838;51.794;12.258;2024-02-15T14:27:47;17.10;30.20
1680;DHT22;838;51.794;12.258;2024-02-15T14:30:15;17.10;30.30
1680;DHT22;838;51.794;12.258;2024-02-15T14:32:59;17.10;29.80
1680;DHT22;838;51.794;12.258;2024-02-15T14:35:35;16.90;31.90
1680;DHT22;838;51.794;12.258;2024-02-15T14:40:36;16.90;32.60
1680;DHT22;838;51.794;12.258;2024-02-15T14:43:03;16.90;31.60
1680;DHT22;838;51.794;12.258;2024-02-15T14:45:33;17.00;30.60
1680;DHT22;838;51.794;12.258;2024-02-15T14:48:00;17.00;31.90
1680;DHT22;838;51.794;12.258;2024-02-15T14:50:26;17.20;29.10
1680;DHT22;838;51.794;12.258;2024-02-15T14:52:52;17.30;30.20
1680;DHT22;838;51.794;12.258;2024-02-15T14:55:19;17.50;28.00
1680;DHT22;838;51.794;12.258;2024-02-15T14:57:45;17.60;24.40
1680;DHT22;838;51.794;12.258;2024-02-15T15:00:12;17.40;25.80
1680;DHT22;838;51.794;12.258;2024-02-15T15:02:44;17.20;27.50
1680;DHT22;838;51.794;12.258;2024-02-15T15:05:15;17.00;28.80
1680;DHT22;838;51.794;12.258;2024-02-15T15:08:00;16.80;28.20
1680;DHT22;838;51.794;12.258;2024-02-15T15:10:46;16.80;29.70
1680;DHT22;838;51.794;12.258;2024-02-15T15:13:34;16.70;30.60
1680;DHT22;838;51.794;12.258;2024-02-15T15:16:00;16.70;30.00
1680;DHT22;838;51.794;12.258;2024-02-15T15:18:30;16.70;29.10
1680;DHT22;838;51.794;12.258;2024-02-15T15:21:00;16.50;31.50
1680;DHT22;838;51.794;12.258;2024-02-15T15:23:27;16.50;34.00
1680;DHT22;838;51.794;12.258;2024-02-15T15:25:56;16.60;32.00
1680;DHT22;838;51.794;12.258;2024-02-15T15:28:22;16.60;31.10
1680;DHT22;838;51.794;12.258;2024-02-15T15:30:49;16.60;31.20
1680;DHT22;838;51.794;12.258;2024-02-15T15:33:16;16.40;31.00
1680;DHT22;838;51.794;12.258;2024-02-15T15:35:45;16.40;33.50
1680;DHT22;838;51.794;12.258;2024-02-15T15:38:11;16.50;32.60
1680;DHT22;838;51.794;12.258;2024-02-15T15:40:37;16.60;30.70
1680;DHT22;838;51.794;12.258;2024-02-15T15:43:04;16.60;29.50
1680;DHT22;838;51.794;12.258;2024-02-15T15:45:34;16.70;29.30
1680;DHT22;838;51.794;12.258;2024-02-15T15:48:03;16.70;29.60
1680;DHT22;838;51.794;12.258;2024-02-15T15:50:30;16.60;29.40
1680;DHT22;838;51.794;12.258;2024-02-15T15:53:02;16.50;30.00
1680;DHT22;838;51.794;12.258;2024-02-15T15:55:28;16.30;31.70
1680;DHT22;838;51.794;12.258;2024-02-15T15:57:54;16.30;30.90
1680;DHT22;838;51.794;12.258;2024-02-15T16:00:20;16.20;32.40
1680;DHT22;838;51.794;12.258;2024-02-15T16:02:46;16.10;33.50
1680;DHT22;838;51.794;12.258;2024-02-15T16:05:12;16.10;33.50
1680;DHT22;838;51.794;12.258;2024-02-15T16:07:48;16.20;34.00
1680;DHT22;838;51.794;12.258;2024-02-15T16:10:14;16.10;32.90
1680;DHT22;838;51.794;12.258;2024-02-15T16:12:41;16.20;33.20
1680;DHT22;838;51.794;12.258;2024-02-15T16:15:08;16.30;30.80
1680;DHT22;838;51.794;12.258;2024-02-15T16:17:36;16.20;30.00
1680;DHT22;838;51.794;12.258;2024-02-15T16:20:08;16.40;29.30
1680;DHT22;838;51.794;12.258;2024-02-15T16:22:38;16.30;30.60
1680;DHT22;838;51.794;12.258;2024-02-15T16:25:07;16.40;29.60
1680;DHT22;838;51.794;12.258;2024-02-15T16:27:37;16.40;28.70